Hauptseite
METAR-TAF:

METAR-TAF

Flughäfen :

Verkehrslandeplatz Mönchengladbach

Mönchengladbach, Deutschland

Breite: 51-13-49N, Länge: 006-30-16E, Höhe: 38 m

Beobachtung

Neuester Wetterbericht von vor 9 Stunden und 26 Minuten, um 18:50 UTC
Windstille
Temperatur -4°C
Luftfeuchtigkeit 86%
Luftdruck 1020 hPa
Sichtweite 10 km oder mehr
keine Wolken unter 1500 m und keine Kumulonimbus oder Gewitterwolken

METAR: EDLN 201850Z 00000KT CAVOK M04/M06 Q1020

Zeit: 05:16 (04:16 UTC)

Prognose

Neuester Wetterbericht von vor 11 Stunden und 16 Minuten, um 17:00 UTC
Gültige Prognose vom 20 um 18 UTC bis 21 um 03 UTC
Wind 3 kt aus unterschiedlichen Richtungen
Sichtweite 10 km oder mehr
keine Wolken unter 1500 m und keine Kumulonimbus oder Gewitterwolken

TAF: EDLN 201700Z 2018/2103 VRB03KT CAVOK

Wetterbeobachtungen und Prognosen von mehr als 4000 Flughäfen (METAR und TAF Bericht).

Die verfügbaren Stationen werden durch gelbe und rote Markierungen auf der Karte dargestellt.

Führen Sie die Maus auf sie, um den Namen der Station zu sehen.

Darauf klicken, um die Beobachtung von Wetterbeobachtungen und Prognosen zu sehen.

Um die Karte zu ändern : klicken Sie auf den grünen Tasten mit einem schwarzen Kreuz Zum Vergrößern, auf den grünen Button mit einem Gedankenstrich zu verkleinern, oder auf die grünen Pfeile für benachbarte Karten.


METAR-TAF: